Time;durP1;ratioP1;P1;durP2;ratioP2;P2;SDS_P1;SDS_P2;PMS_P1;PMS_P2;Temp;Humidity;BMP_temperature;BMP_pressure;BME280_temperature;BME280_humidity;BME280_pressure;Samples;Min_cycle;Max_cycle;Signal;HPM_P1;HPM_P2
2023/06/19 00:00:39;;;;;;;6.13;5.00;;;;;;;;;;5012998;28;20036;-74
2023/06/19 00:03:05;;;;;;;7.30;4.82;;;;;;;;;;5028849;28;20196;-75
2023/06/19 00:05:30;;;;;;;6.50;4.88;;;;;;;;;;5032424;28;20036;-74
2023/06/19 00:07:56;;;;;;;5.90;4.72;;;;;;;;;;5029342;28;20021;-74
2023/06/19 00:10:21;;;;;;;6.25;5.07;;;;;;;;;;5025347;28;20093;-73
2023/06/19 00:12:47;;;;;;;8.63;5.25;;;;;;;;;;5012074;28;20038;-74
2023/06/19 00:15:12;;;;;;;6.00;4.30;;;;;;;;;;5016003;28;20052;-73
2023/06/19 00:17:38;;;;;;;7.18;4.88;;;;;;;;;;5034957;28;20021;-74
2023/06/19 00:20:05;;;;;;;5.97;4.53;;;;;;;;;;5012920;28;20064;-73
2023/06/19 00:22:31;;;;;;;6.90;4.60;;;;;;;;;;5034173;28;20025;-73
2023/06/19 00:24:56;;;;;;;6.35;4.50;;;;;;;;;;5033215;28;20033;-73
2023/06/19 00:27:22;;;;;;;7.93;4.78;;;;;;;;;;5014171;28;20017;-73
2023/06/19 00:29:47;;;;;;;6.88;4.50;;;;;;;;;;5026105;28;20037;-74
2023/06/19 00:32:13;;;;;;;5.68;4.28;;;;;;;;;;5026204;28;20057;-73
2023/06/19 00:34:38;;;;;;;6.20;4.43;;;;;;;;;;5009872;28;20021;-74
2023/06/19 00:37:04;;;;;;;6.15;4.65;;;;;;;;;;5031840;28;20064;-73
2023/06/19 00:39:29;;;;;;;6.63;4.80;;;;;;;;;;5025319;28;20025;-73
2023/06/19 00:41:56;;;;;;;5.90;4.30;;;;;;;;;;5014498;28;20029;-73
2023/06/19 00:44:21;;;;;;;5.47;4.20;;;;;;;;;;5028481;28;20393;-73
2023/06/19 00:46:51;;;;;;;5.60;3.70;;;;;;;;;;5023168;28;20108;-76
2023/06/19 00:49:17;;;;;;;4.43;3.35;;;;;;;;;;5016617;28;20474;-77
2023/06/19 00:51:42;;;;;;;5.07;3.15;;;;;;;;;;5033877;28;20029;-76
2023/06/19 00:54:08;;;;;;;5.05;3.60;;;;;;;;;;5012864;28;20052;-76
2023/06/19 00:56:36;;;;;;;4.60;3.13;;;;;;;;;;5031824;28;20033;-76
2023/06/19 00:59:07;;;;;;;5.93;3.30;;;;;;;;;;5012750;28;20477;-76
2023/06/19 01:01:32;;;;;;;4.57;2.92;;;;;;;;;;5025167;28;20071;-76
2023/06/19 01:03:58;;;;;;;4.60;3.17;;;;;;;;;;5010262;28;20030;-76
2023/06/19 01:06:37;;;;;;;4.78;2.85;;;;;;;;;;5008269;28;20029;-76
2023/06/19 01:09:08;;;;;;;5.03;3.42;;;;;;;;;;5012054;28;20056;-76
2023/06/19 01:11:37;;;;;;;4.82;3.13;;;;;;;;;;5012783;28;20025;-76
2023/06/19 01:14:08;;;;;;;4.78;3.00;;;;;;;;;;5014369;28;20078;-76
2023/06/19 01:16:34;;;;;;;5.93;3.25;;;;;;;;;;5006613;28;20474;-75
2023/06/19 01:18:59;;;;;;;5.35;2.83;;;;;;;;;;5028254;28;20025;-76
2023/06/19 01:21:25;;;;;;;5.05;3.33;;;;;;;;;;5014962;28;20592;-76
2023/06/19 01:23:51;;;;;;;5.57;3.13;;;;;;;;;;5029007;28;20021;-76
2023/06/19 01:26:18;;;;;;;5.40;3.05;;;;;;;;;;5015690;28;20033;-76
2023/06/19 01:28:45;;;;;;;4.43;3.03;;;;;;;;;;5026683;28;20026;-76
2023/06/19 01:31:20;;;;;;;5.03;3.15;;;;;;;;;;5009662;28;20021;-76
2023/06/19 01:33:48;;;;;;;4.65;3.17;;;;;;;;;;5007192;28;20088;-76
2023/06/19 01:36:14;;;;;;;5.18;3.28;;;;;;;;;;5014875;28;20505;-76
2023/06/19 01:38:43;;;;;;;6.32;3.28;;;;;;;;;;5024554;28;20033;-76
2023/06/19 01:41:09;;;;;;;4.60;2.60;;;;;;;;;;5029952;28;20025;-76
2023/06/19 01:43:36;;;;;;;4.47;2.90;;;;;;;;;;5011004;28;20112;-75
2023/06/19 01:46:01;;;;;;;5.60;2.70;;;;;;;;;;5013320;28;20025;-76
2023/06/19 01:48:27;;;;;;;4.78;3.10;;;;;;;;;;5016549;28;20495;-76
2023/06/19 01:50:52;;;;;;;4.60;2.72;;;;;;;;;;5006378;28;20037;-76
2023/06/19 01:53:18;;;;;;;4.78;2.63;;;;;;;;;;5011853;28;20056;-76
2023/06/19 01:55:43;;;;;;;4.30;2.20;;;;;;;;;;5003925;28;20033;-76
2023/06/19 01:58:09;;;;;;;3.40;1.98;;;;;;;;;;5017716;28;20060;-76
2023/06/19 02:00:37;;;;;;;3.15;1.90;;;;;;;;;;5031490;28;20025;-76
2023/06/19 02:03:03;;;;;;;3.15;1.65;;;;;;;;;;5015126;28;20544;-76
2023/06/19 02:05:32;;;;;;;3.75;1.92;;;;;;;;;;5028648;28;20113;-77
2023/06/19 02:07:58;;;;;;;2.60;1.70;;;;;;;;;;5032439;28;20021;-77
2023/06/19 02:10:23;;;;;;;3.55;1.80;;;;;;;;;;5019058;28;20029;-76
2023/06/19 02:12:49;;;;;;;3.28;1.90;;;;;;;;;;5031560;28;20021;-76
2023/06/19 02:15:14;;;;;;;3.00;1.98;;;;;;;;;;5030305;28;20017;-76
2023/06/19 02:17:42;;;;;;;3.58;1.88;;;;;;;;;;5018837;28;20095;-76
2023/06/19 02:20:09;;;;;;;2.95;1.98;;;;;;;;;;5032050;28;20022;-76
2023/06/19 02:22:35;;;;;;;2.90;1.88;;;;;;;;;;5035980;28;20527;-76
2023/06/19 02:25:00;;;;;;;3.88;2.00;;;;;;;;;;5028007;28;20029;-76
2023/06/19 02:27:25;;;;;;;3.00;1.73;;;;;;;;;;5029180;28;20033;-75
2023/06/19 02:29:51;;;;;;;2.97;1.80;;;;;;;;;;5005515;28;20026;-76
2023/06/19 02:32:16;;;;;;;2.92;1.80;;;;;;;;;;5014883;28;20032;-76
2023/06/19 02:34:41;;;;;;;2.50;1.50;;;;;;;;;;5034064;28;20198;-76
2023/06/19 02:37:08;;;;;;;2.97;1.60;;;;;;;;;;5011688;28;20037;-77
2023/06/19 02:39:33;;;;;;;3.40;1.65;;;;;;;;;;5022437;28;20032;-76
2023/06/19 02:41:59;;;;;;;2.55;1.45;;;;;;;;;;5024057;28;20020;-76
2023/06/19 02:44:24;;;;;;;2.47;1.50;;;;;;;;;;5026233;28;20079;-76
2023/06/19 02:46:50;;;;;;;2.97;1.70;;;;;;;;;;5031910;28;20036;-76
2023/06/19 02:49:15;;;;;;;3.00;1.77;;;;;;;;;;5030356;28;20017;-76
2023/06/19 02:51:41;;;;;;;3.15;1.70;;;;;;;;;;5011127;28;20033;-76
2023/06/19 02:54:06;;;;;;;3.42;1.67;;;;;;;;;;5031533;28;20543;-77
2023/06/19 02:56:31;;;;;;;4.35;1.80;;;;;;;;;;5015276;28;20425;-77
2023/06/19 02:58:57;;;;;;;2.60;1.60;;;;;;;;;;5009451;28;20020;-76
2023/06/19 03:01:23;;;;;;;3.58;1.88;;;;;;;;;;5018185;28;20083;-76
2023/06/19 03:03:49;;;;;;;3.17;1.55;;;;;;;;;;5024423;28;20107;-76
2023/06/19 03:06:14;;;;;;;3.83;1.90;;;;;;;;;;5015437;28;20029;-76
2023/06/19 03:08:40;;;;;;;2.90;1.65;;;;;;;;;;5016338;28;20025;-76
2023/06/19 03:11:05;;;;;;;2.92;1.48;;;;;;;;;;5007758;28;20451;-77
2023/06/19 03:13:49;;;;;;;3.05;1.55;;;;;;;;;;5029215;28;20026;-76
2023/06/19 03:16:16;;;;;;;3.28;1.58;;;;;;;;;;5016269;28;20029;-76
2023/06/19 03:18:44;;;;;;;2.53;1.50;;;;;;;;;;5031982;28;20436;-76
2023/06/19 03:21:10;;;;;;;2.80;1.38;;;;;;;;;;5020509;28;20026;-76
2023/06/19 03:23:35;;;;;;;3.95;1.63;;;;;;;;;;5030124;28;20037;-76
2023/06/19 03:26:01;;;;;;;2.70;1.50;;;;;;;;;;5027014;28;20023;-77
2023/06/19 03:28:26;;;;;;;2.30;1.50;;;;;;;;;;5030260;28;20394;-76
2023/06/19 03:30:51;;;;;;;3.17;1.70;;;;;;;;;;5031802;28;20029;-76
2023/06/19 03:33:17;;;;;;;3.35;1.80;;;;;;;;;;5031588;28;20017;-77
2023/06/19 03:35:43;;;;;;;3.88;1.70;;;;;;;;;;5030306;28;20147;-76
2023/06/19 03:38:08;;;;;;;2.35;1.35;;;;;;;;;;5031308;28;20534;-76
2023/06/19 03:40:34;;;;;;;4.05;1.98;;;;;;;;;;5025082;28;20180;-76
2023/06/19 03:42:59;;;;;;;3.83;1.63;;;;;;;;;;5035010;28;20029;-76
2023/06/19 03:45:24;;;;;;;4.22;1.80;;;;;;;;;;5019354;28;20032;-76
2023/06/19 03:47:50;;;;;;;4.20;1.80;;;;;;;;;;5025804;28;20109;-76
2023/06/19 03:50:15;;;;;;;4.05;1.60;;;;;;;;;;5028137;28;20025;-76
2023/06/19 03:52:40;;;;;;;2.80;1.70;;;;;;;;;;5031195;28;20021;-76
2023/06/19 03:55:06;;;;;;;4.57;2.08;;;;;;;;;;5020955;28;20469;-76
2023/06/19 03:57:31;;;;;;;3.65;1.70;;;;;;;;;;5032070;28;20444;-76
2023/06/19 03:59:57;;;;;;;3.08;1.63;;;;;;;;;;5029410;28;20053;-76
2023/06/19 04:02:22;;;;;;;3.75;2.13;;;;;;;;;;5018644;28;20083;-76
2023/06/19 04:04:48;;;;;;;2.53;1.52;;;;;;;;;;5031548;28;20079;-76
2023/06/19 04:07:13;;;;;;;3.88;1.85;;;;;;;;;;5009875;28;20033;-76
2023/06/19 04:09:39;;;;;;;3.30;1.70;;;;;;;;;;5020803;28;20052;-76
2023/06/19 04:12:05;;;;;;;2.83;1.77;;;;;;;;;;5034932;28;20021;-75
2023/06/19 04:14:30;;;;;;;4.20;2.10;;;;;;;;;;5032875;28;20079;-77
2023/06/19 04:16:55;;;;;;;3.85;1.90;;;;;;;;;;5020487;28;20028;-76
2023/06/19 04:19:21;;;;;;;2.85;1.80;;;;;;;;;;5011849;28;20042;-76
2023/06/19 04:21:46;;;;;;;3.65;1.90;;;;;;;;;;5017184;28;20025;-77
2023/06/19 04:24:11;;;;;;;3.20;1.70;;;;;;;;;;5018646;28;20025;-76
2023/06/19 04:26:37;;;;;;;3.00;2.00;;;;;;;;;;5015936;28;20051;-76
2023/06/19 04:29:03;;;;;;;3.47;1.90;;;;;;;;;;5028092;28;20025;-76
2023/06/19 04:31:28;;;;;;;3.65;2.00;;;;;;;;;;5027143;28;20025;-76
2023/06/19 04:33:56;;;;;;;3.28;2.15;;;;;;;;;;5030180;28;20481;-76
2023/06/19 04:36:22;;;;;;;3.47;1.80;;;;;;;;;;5013559;28;20029;-76
2023/06/19 04:38:47;;;;;;;3.88;2.10;;;;;;;;;;5026042;28;20064;-76
2023/06/19 04:41:13;;;;;;;2.97;1.83;;;;;;;;;;5029933;28;20060;-76
2023/06/19 04:43:41;;;;;;;3.60;2.20;;;;;;;;;;5032707;28;20032;-76
2023/06/19 04:46:07;;;;;;;3.95;2.53;;;;;;;;;;5026094;28;20490;-76
2023/06/19 04:48:32;;;;;;;2.95;1.73;;;;;;;;;;5019591;28;20152;-76
2023/06/19 04:51:00;;;;;;;4.05;2.20;;;;;;;;;;5018540;28;20364;-76
2023/06/19 04:53:26;;;;;;;5.00;2.67;;;;;;;;;;5015840;28;20545;-75
2023/06/19 04:55:54;;;;;;;4.22;2.25;;;;;;;;;;5018583;28;20175;-76
2023/06/19 04:58:20;;;;;;;4.00;2.90;;;;;;;;;;5009839;28;20037;-76
2023/06/19 05:00:50;;;;;;;4.05;2.75;;;;;;;;;;5009777;28;20030;-77
2023/06/19 05:03:16;;;;;;;4.57;2.88;;;;;;;;;;5007645;28;20482;-77
2023/06/19 05:05:42;;;;;;;4.47;3.13;;;;;;;;;;5024992;28;20036;-76
2023/06/19 05:08:07;;;;;;;6.43;3.15;;;;;;;;;;5032925;28;20040;-76
2023/06/19 05:10:33;;;;;;;4.75;3.05;;;;;;;;;;5014528;28;20036;-77
2023/06/19 05:12:58;;;;;;;6.75;3.70;;;;;;;;;;5017355;28;20075;-76
2023/06/19 05:15:23;;;;;;;5.38;3.38;;;;;;;;;;5015533;28;20025;-76
2023/06/19 05:17:49;;;;;;;4.95;4.03;;;;;;;;;;5007341;28;20456;-76
2023/06/19 05:20:15;;;;;;;6.15;3.67;;;;;;;;;;5011768;28;20024;-76
2023/06/19 05:22:40;;;;;;;6.25;4.05;;;;;;;;;;5030695;28;20033;-77
2023/06/19 05:25:06;;;;;;;6.07;4.20;;;;;;;;;;5027728;28;20030;-77
2023/06/19 05:27:32;;;;;;;5.32;3.67;;;;;;;;;;5014929;28;20029;-77
2023/06/19 05:29:58;;;;;;;4.82;3.47;;;;;;;;;;5024218;28;20025;-77
2023/06/19 05:32:23;;;;;;;5.53;3.50;;;;;;;;;;5033126;28;20025;-77
2023/06/19 05:34:49;;;;;;;4.45;2.70;;;;;;;;;;5030524;28;20083;-77
2023/06/19 05:37:15;;;;;;;5.85;3.00;;;;;;;;;;5011831;28;20025;-77
2023/06/19 05:39:41;;;;;;;5.53;3.40;;;;;;;;;;5011601;28;20083;-77
2023/06/19 05:42:06;;;;;;;4.90;3.00;;;;;;;;;;5019005;28;20029;-77
2023/06/19 05:44:32;;;;;;;8.05;3.30;;;;;;;;;;5015103;28;20025;-77
2023/06/19 05:46:57;;;;;;;5.22;3.00;;;;;;;;;;5017298;28;20090;-77
2023/06/19 05:49:23;;;;;;;5.35;3.00;;;;;;;;;;5044335;28;20041;-77
2023/06/19 05:51:48;;;;;;;4.80;3.30;;;;;;;;;;5034077;28;20026;-77
2023/06/19 05:54:13;;;;;;;5.43;3.67;;;;;;;;;;5016339;28;20029;-76
2023/06/19 05:56:39;;;;;;;5.93;3.97;;;;;;;;;;5033721;28;20188;-78
2023/06/19 05:59:04;;;;;;;6.05;4.47;;;;;;;;;;5029554;28;20080;-76
2023/06/19 06:01:30;;;;;;;5.72;3.90;;;;;;;;;;5015658;28;20058;-77
2023/06/19 06:03:56;;;;;;;5.35;3.97;;;;;;;;;;5031978;28;20034;-77
2023/06/19 06:06:23;;;;;;;5.05;3.50;;;;;;;;;;5028801;28;20517;-77
2023/06/19 06:08:49;;;;;;;6.20;4.55;;;;;;;;;;5017215;28;20022;-77
2023/06/19 06:11:14;;;;;;;5.50;4.10;;;;;;;;;;5036709;28;20071;-77
2023/06/19 06:13:40;;;;;;;6.07;5.03;;;;;;;;;;5030679;28;20378;-77
2023/06/19 06:16:05;;;;;;;6.35;5.70;;;;;;;;;;5021954;28;20056;-77
2023/06/19 06:18:30;;;;;;;7.45;5.75;;;;;;;;;;5009443;28;20026;-77
2023/06/19 06:20:56;;;;;;;7.22;5.72;;;;;;;;;;5018639;28;20025;-81
2023/06/19 06:23:21;;;;;;;6.70;5.18;;;;;;;;;;5009611;28;20058;-79
2023/06/19 06:25:47;;;;;;;8.10;5.90;;;;;;;;;;5030120;28;20447;-81
2023/06/19 06:28:14;;;;;;;8.30;5.75;;;;;;;;;;5015795;28;20052;-81
2023/06/19 06:30:39;;;;;;;7.07;5.68;;;;;;;;;;5034213;28;20018;-81
2023/06/19 06:33:04;;;;;;;6.93;5.45;;;;;;;;;;5023027;28;20024;-82
2023/06/19 06:35:30;;;;;;;7.32;5.50;;;;;;;;;;5018812;28;20033;-80
2023/06/19 06:37:55;;;;;;;6.05;5.00;;;;;;;;;;5025498;28;20018;-81
2023/06/19 06:40:20;;;;;;;7.68;6.05;;;;;;;;;;5033525;28;20032;-80
2023/06/19 06:42:47;;;;;;;7.43;5.55;;;;;;;;;;5027837;28;20038;-82
2023/06/19 06:45:13;;;;;;;7.22;5.82;;;;;;;;;;5011623;28;21519;-81
2023/06/19 06:47:39;;;;;;;10.10;6.18;;;;;;;;;;5025272;28;20032;-79
2023/06/19 06:50:06;;;;;;;7.32;6.15;;;;;;;;;;5037096;28;20021;-81
2023/06/19 06:52:31;;;;;;;7.43;6.03;;;;;;;;;;5040072;28;20026;-78
2023/06/19 06:54:57;;;;;;;10.88;6.93;;;;;;;;;;5039171;28;20024;-82
2023/06/19 06:57:23;;;;;;;33.17;8.85;;;;;;;;;;5032266;28;20055;-82
2023/06/19 06:59:49;;;;;;;21.48;6.85;;;;;;;;;;5022564;28;20029;-82
2023/06/19 07:02:14;;;;;;;7.72;5.88;;;;;;;;;;5036598;28;20486;-81
2023/06/19 07:04:40;;;;;;;20.40;7.07;;;;;;;;;;5032894;28;20654;-82
2023/06/19 07:07:06;;;;;;;10.52;6.47;;;;;;;;;;5017540;28;20021;-83
2023/06/19 07:09:33;;;;;;;10.05;6.25;;;;;;;;;;5036531;28;20037;-82
2023/06/19 07:11:58;;;;;;;11.38;5.80;;;;;;;;;;5022384;28;20022;-82
2023/06/19 07:14:24;;;;;;;12.00;6.90;;;;;;;;;;5018856;28;20083;-81
2023/06/19 07:16:50;;;;;;;11.77;6.60;;;;;;;;;;5038937;28;20038;-82
2023/06/19 07:19:15;;;;;;;10.05;6.70;;;;;;;;;;5030540;28;20052;-82
2023/06/19 07:21:41;;;;;;;7.90;6.60;;;;;;;;;;5022639;28;20029;-81
2023/06/19 07:24:07;;;;;;;7.85;6.15;;;;;;;;;;5037027;28;20086;-81
2023/06/19 07:26:33;;;;;;;9.50;6.07;;;;;;;;;;5023905;28;20096;-79
2023/06/19 07:28:58;;;;;;;10.20;6.75;;;;;;;;;;5041328;28;20026;-80
2023/06/19 07:31:23;;;;;;;9.57;6.88;;;;;;;;;;5017286;28;20068;-83
2023/06/19 07:33:49;;;;;;;9.57;6.70;;;;;;;;;;5020961;28;20111;-83
2023/06/19 07:36:15;;;;;;;8.52;6.75;;;;;;;;;;5014980;28;20037;-82
2023/06/19 07:38:43;;;;;;;8.55;6.80;;;;;;;;;;5031012;28;20021;-81
2023/06/19 07:41:09;;;;;;;8.55;7.03;;;;;;;;;;5040566;28;20017;-80
2023/06/19 07:43:35;;;;;;;11.85;7.03;;;;;;;;;;5020060;28;20065;-82
2023/06/19 07:46:00;;;;;;;8.70;6.88;;;;;;;;;;5028808;28;20103;-80
2023/06/19 07:48:26;;;;;;;8.40;6.97;;;;;;;;;;5030911;28;20378;-80
2023/06/19 07:50:53;;;;;;;8.13;7.22;;;;;;;;;;5050175;28;20041;-82
2023/06/19 07:53:18;;;;;;;9.07;7.57;;;;;;;;;;5043638;28;20017;-82
2023/06/19 07:55:43;;;;;;;9.23;7.30;;;;;;;;;;5028917;28;20072;-82
2023/06/19 07:58:09;;;;;;;9.40;7.47;;;;;;;;;;5037126;28;20033;-82
2023/06/19 08:00:35;;;;;;;9.65;7.95;;;;;;;;;;5031665;28;20089;-76
2023/06/19 08:03:00;;;;;;;9.65;7.18;;;;;;;;;;5051122;28;19998;-79
2023/06/19 08:05:26;;;;;;;10.02;7.57;;;;;;;;;;5052117;28;20017;-81
2023/06/19 08:07:51;;;;;;;10.93;8.73;;;;;;;;;;5057711;28;20025;-81
2023/06/19 08:10:17;;;;;;;9.60;7.32;;;;;;;;;;5048065;28;20025;-80
2023/06/19 08:12:43;;;;;;;8.80;7.38;;;;;;;;;;5038220;28;20029;-79
2023/06/19 08:15:10;;;;;;;10.98;7.90;;;;;;;;;;5036363;28;20517;-81
2023/06/19 08:17:35;;;;;;;10.10;8.27;;;;;;;;;;5043339;28;20030;-78
2023/06/19 08:20:02;;;;;;;10.07;8.85;;;;;;;;;;5033959;28;20024;-80
2023/06/19 08:22:28;;;;;;;9.50;8.48;;;;;;;;;;5040158;28;20048;-80
2023/06/19 08:24:53;;;;;;;11.63;9.00;;;;;;;;;;5031738;28;20132;-82
2023/06/19 08:27:19;;;;;;;10.65;8.95;;;;;;;;;;5032456;28;20021;-82
2023/06/19 08:29:44;;;;;;;10.80;9.00;;;;;;;;;;5047728;28;20024;-81
2023/06/19 08:32:09;;;;;;;12.38;9.20;;;;;;;;;;5030409;28;20083;-78
2023/06/19 08:34:36;;;;;;;11.13;9.55;;;;;;;;;;5024785;28;20035;-78
2023/06/19 08:37:02;;;;;;;11.75;10.55;;;;;;;;;;5028352;28;20017;-78
2023/06/19 08:39:27;;;;;;;11.70;9.73;;;;;;;;;;5028410;28;20100;-78
2023/06/19 08:41:55;;;;;;;12.45;10.50;;;;;;;;;;5037973;28;20033;-78
2023/06/19 08:44:21;;;;;;;13.85;10.70;;;;;;;;;;5031119;28;20025;-78
2023/06/19 08:46:46;;;;;;;14.57;11.10;;;;;;;;;;5027408;28;20040;-77
2023/06/19 08:49:12;;;;;;;10.48;9.38;;;;;;;;;;5030872;28;20032;-78
2023/06/19 08:51:38;;;;;;;11.35;10.15;;;;;;;;;;5012813;28;20388;-78
2023/06/19 08:54:05;;;;;;;13.05;9.55;;;;;;;;;;5027732;28;20051;-79
2023/06/19 08:56:33;;;;;;;13.63;10.23;;;;;;;;;;5031817;28;20069;-78
2023/06/19 08:59:20;;;;;;;12.48;10.43;;;;;;;;;;5012254;28;20163;-79
2023/06/19 09:01:53;;;;;;;12.00;10.25;;;;;;;;;;5023983;28;20048;-79
2023/06/19 09:04:21;;;;;;;11.85;10.15;;;;;;;;;;5024966;28;20029;-78
2023/06/19 09:06:51;;;;;;;12.35;11.05;;;;;;;;;;5028018;28;20036;-79
2023/06/19 09:09:20;;;;;;;12.95;11.13;;;;;;;;;;5026880;28;20021;-79
2023/06/19 09:12:02;;;;;;;13.23;11.82;;;;;;;;;;5029259;28;20021;-79
2023/06/19 09:14:38;;;;;;;13.20;11.80;;;;;;;;;;5029582;28;20473;-78
2023/06/19 09:17:05;;;;;;;13.77;10.68;;;;;;;;;;5011391;28;20041;-79
2023/06/19 09:19:34;;;;;;;11.35;10.23;;;;;;;;;;5029126;28;20033;-79
2023/06/19 09:22:07;;;;;;;12.27;10.43;;;;;;;;;;5034481;28;20019;-79
2023/06/19 09:24:38;;;;;;;11.15;9.70;;;;;;;;;;5018406;28;20124;-79
2023/06/19 09:27:17;;;;;;;13.77;11.32;;;;;;;;;;5029592;28;20058;-79
2023/06/19 09:29:47;;;;;;;12.60;11.30;;;;;;;;;;5009446;28;20033;-79
2023/06/19 09:32:20;;;;;;;14.00;12.50;;;;;;;;;;5012648;28;20425;-79
2023/06/19 09:34:47;;;;;;;13.82;12.43;;;;;;;;;;5014116;28;20084;-79
2023/06/19 09:37:13;;;;;;;15.30;11.75;;;;;;;;;;5013577;28;20029;-79
2023/06/19 09:39:40;;;;;;;15.07;13.10;;;;;;;;;;5029502;28;20025;-83
2023/06/19 09:42:09;;;;;;;14.63;13.13;;;;;;;;;;5027705;28;20127;-79
2023/06/19 09:44:43;;;;;;;16.30;12.80;;;;;;;;;;5024745;28;20032;-79
2023/06/19 09:47:18;;;;;;;14.00;12.40;;;;;;;;;;5026211;28;20041;-79
2023/06/19 09:49:50;;;;;;;12.77;11.38;;;;;;;;;;5026841;28;20534;-79
2023/06/19 09:52:15;;;;;;;13.38;11.85;;;;;;;;;;5011454;28;20034;-79
2023/06/19 09:54:43;;;;;;;15.10;13.43;;;;;;;;;;5014310;28;20029;-78
2023/06/19 09:57:10;;;;;;;16.08;13.65;;;;;;;;;;5024874;28;20056;-79
2023/06/19 09:59:38;;;;;;;15.45;13.00;;;;;;;;;;5011745;28;20538;-79
2023/06/19 10:02:06;;;;;;;14.10;12.32;;;;;;;;;;5011808;28;20116;-79
2023/06/19 10:04:44;;;;;;;13.82;10.77;;;;;;;;;;5014874;28;20072;-79
2023/06/19 10:07:23;;;;;;;14.30;11.38;;;;;;;;;;5024002;28;20526;-78
2023/06/19 10:10:24;;;;;;;12.63;11.32;;;;;;;;;;5036476;28;20029;-79
2023/06/19 10:12:50;;;;;;;12.48;10.63;;;;;;;;;;4994603;28;20479;-79
2023/06/19 10:15:36;;;;;;;13.50;11.80;;;;;;;;;;5024897;28;20104;-79
2023/06/19 10:18:04;;;;;;;14.68;12.52;;;;;;;;;;5027427;28;20540;-79
2023/06/19 10:20:38;;;;;;;17.38;11.55;;;;;;;;;;5011035;28;21121;-78
2023/06/19 10:23:07;;;;;;;12.25;11.05;;;;;;;;;;5032501;28;20091;-79
2023/06/19 10:25:43;;;;;;;13.57;11.20;;;;;;;;;;5035683;28;20104;-79
2023/06/19 10:28:30;;;;;;;13.88;11.48;;;;;;;;;;5015337;28;20021;-78
2023/06/19 10:31:01;;;;;;;12.77;11.15;;;;;;;;;;5031393;28;20503;-79
2023/06/19 10:33:32;;;;;;;12.13;9.95;;;;;;;;;;5038504;28;20025;-79
2023/06/19 10:35:59;;;;;;;13.80;11.60;;;;;;;;;;5017389;28;20044;-79
2023/06/19 10:38:25;;;;;;;12.88;11.55;;;;;;;;;;5033905;28;20029;-79
2023/06/19 10:40:51;;;;;;;14.02;11.68;;;;;;;;;;5018831;28;20062;-79
2023/06/19 10:43:25;;;;;;;14.55;12.65;;;;;;;;;;5012695;28;20136;-78
2023/06/19 10:45:53;;;;;;;15.18;10.20;;;;;;;;;;5018869;28;20444;-79
2023/06/19 10:48:23;;;;;;;13.80;12.40;;;;;;;;;;5015020;28;20033;-79
2023/06/19 10:50:50;;;;;;;16.23;13.73;;;;;;;;;;5030199;28;20457;-79
2023/06/19 10:53:34;;;;;;;15.90;13.18;;;;;;;;;;5012192;28;20493;-79
2023/06/19 10:56:01;;;;;;;14.32;12.63;;;;;;;;;;5024896;28;20021;-79
2023/06/19 10:58:28;;;;;;;15.35;13.10;;;;;;;;;;5031214;28;20496;-79
2023/06/19 11:00:53;;;;;;;13.82;12.35;;;;;;;;;;5014292;28;20482;-79
2023/06/19 11:03:19;;;;;;;14.68;12.82;;;;;;;;;;5034309;28;20028;-79
2023/06/19 11:05:45;;;;;;;14.20;12.27;;;;;;;;;;5037904;28;20112;-79
2023/06/19 11:08:21;;;;;;;13.93;12.02;;;;;;;;;;5034020;28;20026;-79
2023/06/19 11:10:46;;;;;;;14.30;12.13;;;;;;;;;;5008961;28;20055;-79
2023/06/19 11:13:17;;;;;;;13.85;11.95;;;;;;;;;;5012464;28;20025;-79
2023/06/19 11:15:43;;;;;;;13.93;12.48;;;;;;;;;;5035063;28;20044;-79
2023/06/19 11:18:08;;;;;;;13.50;11.77;;;;;;;;;;5014867;28;20625;-79
2023/06/19 11:20:51;;;;;;;13.07;11.10;;;;;;;;;;5031930;28;20025;-79
2023/06/19 11:23:24;;;;;;;14.03;11.00;;;;;;;;;;5033006;28;20075;-79
2023/06/19 11:25:49;;;;;;;13.18;10.80;;;;;;;;;;5032088;28;20036;-79
2023/06/19 11:28:22;;;;;;;11.93;10.02;;;;;;;;;;5013243;28;20486;-80
2023/06/19 11:30:49;;;;;;;12.25;9.27;;;;;;;;;;5030179;28;20029;-79
2023/06/19 11:33:22;;;;;;;11.85;9.02;;;;;;;;;;5031486;28;20033;-80
2023/06/19 11:35:51;;;;;;;11.27;10.07;;;;;;;;;;5030673;28;20021;-79
2023/06/19 11:38:18;;;;;;;11.57;9.95;;;;;;;;;;5018434;28;20758;-79
2023/06/19 11:40:45;;;;;;;11.63;10.38;;;;;;;;;;5027166;28;20071;-79
2023/06/19 11:43:11;;;;;;;13.20;10.10;;;;;;;;;;5023312;28;20071;-79
2023/06/19 11:45:51;;;;;;;13.25;10.77;;;;;;;;;;5013161;28;20029;-79
2023/06/19 11:48:24;;;;;;;9.80;8.45;;;;;;;;;;5013871;28;20120;-79
2023/06/19 11:50:51;;;;;;;12.80;10.23;;;;;;;;;;5015649;28;20033;-79
2023/06/19 11:53:16;;;;;;;12.32;10.05;;;;;;;;;;5016730;28;20115;-79
2023/06/19 11:55:41;;;;;;;11.60;9.70;;;;;;;;;;5014160;28;20462;-79
2023/06/19 11:58:07;;;;;;;11.95;10.68;;;;;;;;;;5013501;28;20029;-79
2023/06/19 12:00:32;;;;;;;10.95;8.35;;;;;;;;;;5032748;28;20394;-79
2023/06/19 12:02:58;;;;;;;11.77;8.50;;;;;;;;;;5028641;28;20032;-79
2023/06/19 12:05:24;;;;;;;12.85;10.20;;;;;;;;;;5033054;28;20068;-79
2023/06/19 12:07:50;;;;;;;13.52;9.75;;;;;;;;;;5030759;28;20025;-79
2023/06/19 12:10:15;;;;;;;14.10;9.65;;;;;;;;;;5030924;28;20022;-79
2023/06/19 12:12:40;;;;;;;14.65;10.13;;;;;;;;;;5030808;28;20017;-79
2023/06/19 12:15:07;;;;;;;10.32;8.63;;;;;;;;;;5017817;28;20139;-79
2023/06/19 12:17:32;;;;;;;10.02;8.13;;;;;;;;;;5028699;28;20470;-79
2023/06/19 12:19:58;;;;;;;11.95;8.98;;;;;;;;;;5031993;28;20035;-79
2023/06/19 12:22:24;;;;;;;10.80;7.72;;;;;;;;;;5030323;28;20037;-79
2023/06/19 12:24:49;;;;;;;12.45;8.23;;;;;;;;;;5030101;28;20037;-79
2023/06/19 12:27:14;;;;;;;11.25;9.00;;;;;;;;;;5029833;28;20021;-80
2023/06/19 12:29:40;;;;;;;9.88;7.35;;;;;;;;;;5009904;28;20082;-79
2023/06/19 12:32:05;;;;;;;10.40;7.70;;;;;;;;;;5016316;28;20056;-80
2023/06/19 12:34:31;;;;;;;12.90;6.60;;;;;;;;;;5030923;28;20854;-80
2023/06/19 12:36:57;;;;;;;10.60;7.28;;;;;;;;;;5026932;28;20057;-78
2023/06/19 12:39:22;;;;;;;7.80;6.45;;;;;;;;;;5010545;28;20033;-78
2023/06/19 12:41:48;;;;;;;8.25;6.60;;;;;;;;;;5012774;28;20147;-78
2023/06/19 12:44:13;;;;;;;7.80;6.10;;;;;;;;;;5011138;28;20026;-77
2023/06/19 12:46:39;;;;;;;9.57;6.60;;;;;;;;;;5033939;28;20078;-78
2023/06/19 12:49:05;;;;;;;8.23;5.38;;;;;;;;;;5032507;28;20104;-77
2023/06/19 12:51:30;;;;;;;8.48;6.22;;;;;;;;;;5017750;28;20020;-78
2023/06/19 12:53:55;;;;;;;9.40;6.43;;;;;;;;;;5032509;28;20021;-77
2023/06/19 12:56:21;;;;;;;8.55;5.75;;;;;;;;;;5008730;28;20029;-78
2023/06/19 12:58:46;;;;;;;7.03;5.65;;;;;;;;;;5013815;28;20484;-78
2023/06/19 13:01:11;;;;;;;7.75;5.47;;;;;;;;;;5031795;28;20051;-79
2023/06/19 13:03:37;;;;;;;9.25;6.18;;;;;;;;;;5031266;28;20048;-78
2023/06/19 13:06:02;;;;;;;7.80;5.53;;;;;;;;;;5014153;28;20038;-78
2023/06/19 13:08:28;;;;;;;6.75;4.90;;;;;;;;;;5033555;28;20033;-77
2023/06/19 13:10:53;;;;;;;8.48;5.40;;;;;;;;;;5016192;28;20770;-78
2023/06/19 13:13:18;;;;;;;6.18;4.80;;;;;;;;;;5026373;28;20124;-78
2023/06/19 13:15:44;;;;;;;6.95;4.95;;;;;;;;;;5005744;28;20017;-78
2023/06/19 13:18:10;;;;;;;9.25;5.80;;;;;;;;;;5013250;28;20052;-78
2023/06/19 13:20:36;;;;;;;7.82;5.75;;;;;;;;;;5014456;28;20049;-78
2023/06/19 13:23:01;;;;;;;7.47;4.90;;;;;;;;;;5028658;28;20544;-77
2023/06/19 13:25:27;;;;;;;8.88;5.55;;;;;;;;;;5013143;28;20120;-78
2023/06/19 13:27:52;;;;;;;7.43;5.53;;;;;;;;;;5029342;28;20048;-77
2023/06/19 13:30:17;;;;;;;8.43;5.45;;;;;;;;;;5013486;28;20032;-78
2023/06/19 13:32:43;;;;;;;7.00;5.15;;;;;;;;;;5011739;28;20033;-78
2023/06/19 13:35:08;;;;;;;6.80;5.38;;;;;;;;;;5016812;28;20025;-78
2023/06/19 13:37:35;;;;;;;7.57;5.50;;;;;;;;;;5031312;28;20108;-78
2023/06/19 13:40:01;;;;;;;8.48;5.55;;;;;;;;;;5025502;28;20104;-75
2023/06/19 13:42:29;;;;;;;8.68;5.57;;;;;;;;;;5032676;28;20498;-75
2023/06/19 13:44:54;;;;;;;10.10;6.38;;;;;;;;;;5032656;28;20033;-75
2023/06/19 13:47:20;;;;;;;6.05;4.60;;;;;;;;;;5014268;28;20436;-75
2023/06/19 13:49:45;;;;;;;6.90;5.30;;;;;;;;;;5012284;28;20022;-75
2023/06/19 13:52:11;;;;;;;7.68;5.68;;;;;;;;;;5016623;28;20037;-75
2023/06/19 13:54:36;;;;;;;8.32;5.50;;;;;;;;;;5017052;28;20029;-75
2023/06/19 13:57:02;;;;;;;7.03;5.03;;;;;;;;;;5019106;28;20020;-78
2023/06/19 13:59:27;;;;;;;9.13;5.50;;;;;;;;;;5015502;28;20047;-78
2023/06/19 14:01:53;;;;;;;7.78;5.00;;;;;;;;;;5034992;28;20025;-78
2023/06/19 14:04:19;;;;;;;7.18;4.63;;;;;;;;;;5032040;28;20021;-77
2023/06/19 14:06:44;;;;;;;7.55;5.30;;;;;;;;;;5015175;28;20148;-78
2023/06/19 14:09:09;;;;;;;10.15;5.53;;;;;;;;;;5037243;28;21559;-78
2023/06/19 14:11:35;;;;;;;7.72;5.10;;;;;;;;;;5031263;28;20104;-78
2023/06/19 14:14:00;;;;;;;8.35;4.50;;;;;;;;;;5018753;28;20079;-77
2023/06/19 14:16:26;;;;;;;7.80;5.22;;;;;;;;;;5034151;28;20043;-78
2023/06/19 14:18:51;;;;;;;8.10;5.20;;;;;;;;;;5041197;28;20555;-78
2023/06/19 14:21:16;;;;;;;6.97;5.10;;;;;;;;;;5021001;28;20025;-78
2023/06/19 14:23:44;;;;;;;6.43;5.00;;;;;;;;;;5016917;28;20030;-77
2023/06/19 14:26:10;;;;;;;7.45;4.97;;;;;;;;;;5033950;28;20028;-78
2023/06/19 14:28:38;;;;;;;7.53;5.68;;;;;;;;;;5015148;28;20444;-78
2023/06/19 14:31:03;;;;;;;7.75;5.50;;;;;;;;;;5028769;28;20017;-77
2023/06/19 14:33:28;;;;;;;8.00;5.60;;;;;;;;;;5029412;28;20063;-77